Time;durP1;ratioP1;P1;durP2;ratioP2;P2;SDS_P1;SDS_P2;PMS_P1;PMS_P2;Temp;Humidity;BMP_temperature;BMP_pressure;BME280_temperature;BME280_humidity;BME280_pressure;Samples;Min_cycle;Max_cycle;Signal;HPM_P1;HPM_P2
2021/06/01 00:02:14;;;;;;;;;5.00;5.00;;;;;21.91;33.99;100923.50;5076452;27;45441;-72
2021/06/01 00:04:39;;;;;;;;;8.00;8.00;;;;;21.94;33.82;100918.75;5072691;28;45486;-73
2021/06/01 00:07:05;;;;;;;;;5.75;5.75;;;;;21.97;34.04;100915.84;5071452;27;45605;-68
2021/06/01 00:09:30;;;;;;;;;6.75;6.75;;;;;22.01;33.91;100920.09;5061396;27;48551;-71
2021/06/01 00:11:55;;;;;;;;;5.00;5.00;;;;;22.05;34.21;100920.75;5066721;27;45329;-71
2021/06/01 00:14:21;;;;;;;;;6.75;6.75;;;;;22.06;34.66;100914.41;5071981;27;46639;-68
2021/06/01 00:16:48;;;;;;;;;5.50;5.50;;;;;22.12;34.31;100915.84;5066772;27;45477;-71
2021/06/01 00:19:14;;;;;;;;;5.00;5.00;;;;;22.13;34.18;100910.34;5070950;27;47530;-68
2021/06/01 00:21:40;;;;;;;;;7.50;7.50;;;;;22.13;34.76;100910.34;5072648;27;45518;-69
2021/06/01 00:24:07;;;;;;;;;5.75;5.75;;;;;22.16;34.70;100906.56;5070229;27;45476;-70
2021/06/01 00:26:34;;;;;;;;;5.50;5.50;;;;;22.15;34.58;100907.53;5073273;27;45443;-70
2021/06/01 00:28:59;;;;;;;;;5.00;5.00;;;;;22.13;34.56;100915.75;5069501;27;48005;-74
2021/06/01 00:31:24;;;;;;;;;7.25;6.25;;;;;22.13;34.53;100909.47;5087000;27;47331;-69
2021/06/01 00:33:50;;;;;;;;;6.00;6.00;;;;;22.09;35.07;100910.63;5070108;27;45594;-70
2021/06/01 00:36:15;;;;;;;;;5.00;5.00;;;;;22.06;35.40;100909.00;5072361;27;45408;-70
2021/06/01 00:38:41;;;;;;;;;6.75;6.50;;;;;22.04;35.42;100903.66;5065442;27;45637;-70
2021/06/01 00:41:06;;;;;;;;;5.75;5.75;;;;;22.05;34.87;100909.94;5065205;27;45450;-70
2021/06/01 00:43:33;;;;;;;;;8.75;7.50;;;;;22.04;35.41;100903.66;5072735;27;45393;-71
2021/06/01 00:45:59;;;;;;;;;7.50;6.50;;;;;22.03;34.89;100907.34;5068681;27;45387;-69
2021/06/01 00:48:24;;;;;;;;;5.75;5.75;;;;;22.02;34.89;100902.91;5069572;27;45929;-70
2021/06/01 00:50:50;;;;;;;;;8.00;8.00;;;;;22.00;35.54;100904.84;5069582;27;45421;-70
2021/06/01 00:53:15;;;;;;;;;7.25;7.25;;;;;21.98;35.48;100897.81;5074553;27;45390;-69
2021/06/01 00:55:41;;;;;;;;;7.00;7.00;;;;;21.96;34.96;100897.03;5058547;28;45642;-72
2021/06/01 00:58:08;;;;;;;;;7.00;6.00;;;;;21.93;35.16;100895.41;5065274;28;47431;-70
2021/06/01 01:03:08;;;;;;;;;6.75;6.75;;;;;21.91;35.08;100893.78;5068827;27;45440;-69
2021/06/01 01:05:36;;;;;;;;;6.25;6.25;;;;;21.90;35.30;100886.63;5067902;27;45475;-68
2021/06/01 01:08:45;;;;;;;;;8.00;8.00;;;;;21.87;35.59;100903.06;5069204;27;47342;-68
2021/06/01 01:11:33;;;;;;;;;7.75;4.75;;;;;21.87;35.50;100889.56;5071968;27;45464;-68
2021/06/01 01:14:07;;;;;;;;;6.25;6.25;;;;;21.86;35.43;100888.69;5060313;27;45532;-70
2021/06/01 01:16:34;;;;;;;;;5.25;5.25;;;;;21.84;35.47;100890.59;5071627;28;45619;-68
2021/06/01 01:19:11;;;;;;;;;5.75;5.75;;;;;21.83;35.24;100886.16;5068342;28;46478;-70
2021/06/01 01:21:55;;;;;;;;;6.25;5.75;;;;;21.83;35.85;100883.47;5067064;27;46007;-68
2021/06/01 01:24:50;;;;;;;;;5.50;5.50;;;;;21.83;35.82;100885.28;5072217;27;45513;-68
2021/06/01 01:28:01;;;;;;;;;6.00;6.00;;;;;21.79;35.40;100891.88;5066570;27;45528;-69
2021/06/01 01:30:35;;;;;;;;;6.00;6.00;;;;;21.72;35.37;100883.28;5069614;27;47563;-70
2021/06/01 01:33:02;;;;;;;;;6.00;5.75;;;;;21.70;35.96;100886.09;5068011;28;45664;-69
2021/06/01 01:35:30;;;;;;;;;5.00;5.00;;;;;21.67;35.79;100875.50;5071612;27;46687;-70
2021/06/01 01:38:01;;;;;;;;;5.00;5.00;;;;;21.62;35.51;100874.94;5085970;27;45601;-71
2021/06/01 01:40:30;;;;;;;;;5.00;5.00;;;;;21.55;36.29;100875.44;5084498;27;47556;-71
2021/06/01 01:43:03;;;;;;;;;5.50;5.50;;;;;21.52;35.94;100881.91;5070053;27;45595;-73
2021/06/01 01:45:31;;;;;;;;;7.25;6.25;;;;;21.52;35.84;100881.91;5066866;28;45672;-74
2021/06/01 01:50:44;;;;;;;;;7.25;7.25;;;;;21.50;35.47;100873.03;5061592;28;45892;-70
2021/06/01 01:53:17;;;;;;;;;8.50;7.50;;;;;21.49;35.58;100867.75;5061248;27;45530;-68
2021/06/01 01:55:47;;;;;;;;;6.50;6.00;;;;;21.46;36.04;100860.69;5063418;28;45413;-69
2021/06/01 01:58:14;;;;;;;;;21.00;18.25;;;;;21.45;35.72;100858.94;5066581;28;45646;-70
2021/06/01 02:00:40;;;;;;;;;60.00;48.75;;;;;21.40;35.82;100859.25;5070055;27;46237;-70
2021/06/01 02:03:08;;;;;;;;;66.25;54.25;;;;;21.39;35.48;100862.94;5065874;28;45601;-70
2021/06/01 02:05:34;;;;;;;;;52.75;42.75;;;;;21.35;35.98;100855.13;5086907;27;45773;-70
2021/06/01 02:08:00;;;;;;;;;36.00;33.50;;;;;21.32;35.84;100858.88;5071041;27;45727;-70
2021/06/01 02:10:25;;;;;;;;;26.75;26.75;;;;;21.29;35.35;100855.50;5070679;27;46466;-70
2021/06/01 02:12:51;;;;;;;;;22.75;21.75;;;;;21.27;35.76;100852.91;5070939;27;45421;-70
2021/06/01 02:15:16;;;;;;;;;18.25;17.00;;;;;21.26;35.61;100853.88;5069748;28;45413;-69
2021/06/01 02:17:41;;;;;;;;;17.25;16.25;;;;;21.24;35.62;100846.81;5066641;27;45524;-71
2021/06/01 02:20:08;;;;;;;;;14.00;13.25;;;;;21.22;35.30;100851.47;5062703;27;46402;-69
2021/06/01 02:25:16;;;;;;;;;10.75;10.00;;;;;21.16;35.45;100842.78;5065482;27;45610;-69
2021/06/01 02:27:54;;;;;;;;;8.50;8.50;;;;;21.14;36.00;100849.22;5068550;27;45386;-71
2021/06/01 02:30:25;;;;;;;;;10.75;10.75;;;;;21.10;35.45;100850.41;5060646;27;48878;-69
2021/06/01 02:32:54;;;;;;;;;6.75;6.00;;;;;21.08;35.72;100844.22;5066224;27;45926;-69
2021/06/01 02:35:40;;;;;;;;;6.25;6.25;;;;;21.06;35.55;100840.75;5071028;28;45487;-69
2021/06/01 02:38:09;;;;;;;;;6.00;6.00;;;;;21.04;35.72;100848.94;5071670;27;45546;-71
2021/06/01 02:40:36;;;;;;;;;7.00;7.00;;;;;21.01;35.85;100842.88;5070051;27;47455;-71
2021/06/01 02:43:06;;;;;;;;;7.25;6.00;;;;;20.99;35.52;100844.81;5073319;27;45397;-70
2021/06/01 02:45:36;;;;;;;;;7.75;6.25;;;;;20.96;35.82;100840.47;5085318;27;45482;-68
2021/06/01 02:48:02;;;;;;;;;5.00;5.00;;;;;20.92;35.50;100840.75;5071365;27;45625;-69
2021/06/01 02:50:29;;;;;;;;;6.00;5.25;;;;;20.91;35.85;100844.41;5075867;27;47709;-68
2021/06/01 02:52:56;;;;;;;;;6.75;6.25;;;;;20.91;35.87;100841.72;5068657;27;45754;-74
2021/06/01 02:55:23;;;;;;;;;7.00;6.00;;;;;20.91;36.08;100839.88;5065678;28;45573;-70
2021/06/01 02:57:49;;;;;;;;;6.00;6.00;;;;;20.88;35.81;100839.22;5070405;28;45662;-71
2021/06/01 03:00:21;;;;;;;;;6.00;6.00;;;;;20.86;35.80;100831.22;5066128;27;45939;-68
2021/06/01 03:02:47;;;;;;;;;8.00;6.00;;;;;20.83;36.14;100834.09;5069711;27;45713;-69
2021/06/01 03:05:13;;;;;;;;;6.00;6.00;;;;;20.81;36.24;100834.19;5065188;27;45763;-69
2021/06/01 03:07:40;;;;;;;;;4.50;4.50;;;;;20.78;36.20;100837.09;5064615;27;46001;-69
2021/06/01 03:10:15;;;;;;;;;5.25;5.25;;;;;20.77;36.39;100840.75;5069727;28;47273;-74
2021/06/01 03:15:07;;;;;;;;;6.50;6.25;;;;;20.71;36.37;100830.34;5064199;27;45513;-71
2021/06/01 03:17:34;;;;;;;;;5.00;4.75;;;;;20.69;36.55;100828.69;5064701;27;45544;-69
2021/06/01 03:19:59;;;;;;;;;5.50;5.50;;;;;20.65;36.84;100827.16;5064277;27;48464;-70
2021/06/01 03:22:25;;;;;;;;;4.25;4.25;;;;;20.63;36.81;100831.78;5073764;27;45404;-69
2021/06/01 03:24:50;;;;;;;;;8.00;8.00;;;;;20.60;36.40;100830.16;5066306;27;45388;-70
2021/06/01 03:27:16;;;;;;;;;9.25;7.00;;;;;20.57;36.63;100824.91;5067450;27;45416;-69
2021/06/01 03:29:41;;;;;;;;;7.00;6.00;;;;;20.55;36.90;100822.31;5058302;27;47590;-68
2021/06/01 03:32:07;;;;;;;;;7.00;7.00;;;;;20.54;36.95;100825.13;5062246;27;45530;-68
2021/06/01 03:34:33;;;;;;;;;7.00;7.00;;;;;20.52;36.90;100822.53;5068113;27;45377;-69
2021/06/01 03:36:59;;;;;;;;;9.00;8.75;;;;;20.49;36.31;100820.03;5066315;28;45425;-69
2021/06/01 03:39:26;;;;;;;;;7.00;7.00;;;;;20.47;36.87;100818.38;5061050;27;48252;-69
2021/06/01 03:41:52;;;;;;;;;12.00;10.00;;;;;20.44;36.77;100813.16;5069872;27;45455;-69
2021/06/01 03:44:17;;;;;;;;;8.25;8.25;;;;;20.42;36.64;100810.56;5071418;27;45658;-69
2021/06/01 03:46:43;;;;;;;;;13.00;12.25;;;;;20.39;36.86;100809.84;5060259;28;46111;-70
2021/06/01 03:49:08;;;;;;;;;10.75;10.25;;;;;20.33;37.25;100811.09;5067801;27;49019;-69
2021/06/01 03:51:34;;;;;;;;;11.00;11.00;;;;;20.31;37.25;100812.13;5065850;28;45404;-69
2021/06/01 03:54:00;;;;;;;;;15.25;13.50;;;;;20.26;37.38;100809.72;5068123;27;45510;-69
2021/06/01 03:56:25;;;;;;;;;15.25;12.50;;;;;20.25;37.48;100808.88;5068666;28;45729;-69
2021/06/01 03:58:50;;;;;;;;;12.00;11.25;;;;;20.22;37.14;100809.06;5065214;28;46326;-70
2021/06/01 04:01:16;;;;;;;;;12.25;12.25;;;;;20.22;37.58;100810.88;5061716;27;46701;-69
2021/06/01 04:03:41;;;;;;;;;13.00;12.75;;;;;20.19;37.10;100811.91;5062187;27;46159;-71
2021/06/01 04:06:09;;;;;;;;;14.00;10.00;;;;;20.22;37.65;100818.97;5065309;28;46547;-68
2021/06/01 04:08:35;;;;;;;;;7.75;7.75;;;;;20.21;37.55;100812.72;5071497;27;47721;-70
2021/06/01 04:11:00;;;;;;;;;9.50;9.50;;;;;20.22;37.40;100811.75;5078273;27;45586;-69
2021/06/01 04:13:26;;;;;;;;;12.00;11.75;;;;;20.22;37.42;100822.53;5063613;27;45505;-71
2021/06/01 04:15:51;;;;;;;;;14.00;12.50;;;;;20.22;37.30;100814.44;5065278;28;45574;-70
2021/06/01 04:18:17;;;;;;;;;8.50;8.50;;;;;20.19;37.62;100813.75;5068079;28;46151;-68
2021/06/01 04:20:42;;;;;;;;;8.50;8.50;;;;;20.18;37.80;100820.09;5066096;27;46619;-72
2021/06/01 04:23:08;;;;;;;;;10.50;10.00;;;;;20.15;37.88;100812.19;5067631;27;45430;-68
2021/06/01 04:25:33;;;;;;;;;10.50;10.25;;;;;20.12;37.81;100815.09;5044270;28;45585;-67
2021/06/01 04:27:59;;;;;;;;;7.50;6.50;;;;;20.10;37.59;100815.19;5062979;28;49054;-71
2021/06/01 04:30:24;;;;;;;;;7.00;7.00;;;;;20.04;37.85;100811.97;5066885;28;45558;-70
2021/06/01 04:32:50;;;;;;;;;9.00;9.00;;;;;19.98;37.86;100806.00;5064656;28;45435;-68
2021/06/01 04:35:15;;;;;;;;;6.50;6.50;;;;;19.97;38.26;100806.09;5063023;27;45595;-71
2021/06/01 04:37:40;;;;;;;;;8.00;7.75;;;;;19.99;37.85;100806.88;5067340;27;45926;-71
2021/06/01 04:40:10;;;;;;;;;7.00;7.00;;;;;20.03;37.84;100802.16;5066202;27;45702;-69
2021/06/01 04:42:35;;;;;;;;;8.00;8.00;;;;;20.07;37.95;100803.69;5065029;28;45507;-68
2021/06/01 04:45:00;;;;;;;;;6.75;6.75;;;;;20.09;37.75;100802.66;5070876;27;45533;-68
2021/06/01 04:47:26;;;;;;;;;8.25;8.25;;;;;20.14;37.86;100803.25;5069480;27;45475;-71
2021/06/01 04:49:51;;;;;;;;;8.00;8.00;;;;;20.17;37.80;100803.06;5066540;27;45425;-71
2021/06/01 04:52:17;;;;;;;;;7.25;7.25;;;;;20.18;37.70;100791.31;5065132;28;45506;-71
2021/06/01 04:54:42;;;;;;;;;7.75;7.75;;;;;20.21;37.52;100801.06;5070796;27;45781;-72
2021/06/01 04:57:08;;;;;;;;;7.00;7.00;;;;;20.20;37.67;100797.50;5064311;27;45675;-68
2021/06/01 04:59:35;;;;;;;;;6.75;6.50;;;;;20.23;37.76;100801.84;5070971;27;45557;-69
2021/06/01 05:02:00;;;;;;;;;8.50;7.50;;;;;20.24;37.86;100796.34;5068869;27;45512;-67
2021/06/01 05:04:26;;;;;;;;;9.00;9.00;;;;;20.23;37.72;100804.53;5071471;27;45809;-70
2021/06/01 05:06:56;;;;;;;;;8.00;8.00;;;;;20.23;37.90;100793.75;5070267;27;46839;-73
2021/06/01 05:09:22;;;;;;;;;7.00;7.00;;;;;20.24;37.83;100795.50;5070332;27;45569;-74
2021/06/01 05:11:48;;;;;;;;;8.50;8.50;;;;;20.27;37.57;100793.47;5066892;27;45406;-69
2021/06/01 05:14:13;;;;;;;;;11.00;9.75;;;;;20.29;37.69;100791.53;5068000;27;45444;-70
2021/06/01 05:16:39;;;;;;;;;10.25;8.25;;;;;20.29;37.65;100786.16;5066050;27;47754;-69
2021/06/01 05:19:04;;;;;;;;;10.00;8.50;;;;;20.28;37.98;100787.09;5076268;27;45487;-72
2021/06/01 05:21:30;;;;;;;;;9.00;9.00;;;;;20.29;37.72;100782.59;5085446;27;45448;-67
2021/06/01 05:23:55;;;;;;;;;11.25;9.75;;;;;20.33;37.50;100786.84;5067948;27;45473;-70
2021/06/01 05:26:21;;;;;;;;;9.50;8.25;;;;;20.36;37.66;100793.88;5068807;27;46309;-72
2021/06/01 05:28:47;;;;;;;;;7.00;7.00;;;;;20.35;37.95;100784.06;5064815;27;45514;-75
2021/06/01 05:33:50;;;;;;;;;10.00;10.00;;;;;20.40;37.70;100779.25;5071947;28;45392;-67
2021/06/01 05:36:16;;;;;;;;;6.75;6.75;;;;;20.40;37.93;100777.41;5069805;27;47411;-69
2021/06/01 05:38:41;;;;;;;;;6.75;6.75;;;;;20.43;38.15;100774.56;5070585;27;45643;-70
2021/06/01 05:41:07;;;;;;;;;7.75;7.75;;;;;20.46;37.71;100779.78;5054674;28;45385;-68
2021/06/01 05:43:33;;;;;;;;;11.75;9.25;;;;;20.45;37.70;100785.22;5073455;28;45590;-67
2021/06/01 05:45:59;;;;;;;;;8.50;8.50;;;;;20.47;38.10;100786.03;5066506;27;45547;-73
2021/06/01 05:48:24;;;;;;;;;7.75;7.75;;;;;20.51;37.89;100780.34;5067195;27;45399;-71
2021/06/01 05:50:50;;;;;;;;;8.25;6.75;;;;;20.54;38.02;100776.59;5069404;27;45566;-69
2021/06/01 05:53:17;;;;;;;;;9.50;7.00;;;;;20.58;37.58;100778.13;5068010;28;45548;-70
2021/06/01 05:55:44;;;;;;;;;10.00;10.00;;;;;20.58;37.48;100770.03;5067478;27;47450;-69
2021/06/01 05:58:10;;;;;;;;;7.25;7.25;;;;;20.55;37.62;100776.50;5065280;27;45329;-68
2021/06/01 06:00:35;;;;;;;;;6.50;6.50;;;;;20.55;37.50;100776.50;5064374;28;45274;-68
2021/06/01 06:03:02;;;;;;;;;5.75;5.50;;;;;20.57;37.53;100773.69;5066146;28;46145;-70
2021/06/01 06:05:28;;;;;;;;;6.50;6.50;;;;;20.58;37.44;100772.72;5063015;27;45598;-67
2021/06/01 06:07:54;;;;;;;;;6.00;6.00;;;;;20.51;37.47;100768.69;5064383;27;45438;-67
2021/06/01 06:10:20;;;;;;;;;6.50;6.50;;;;;20.48;37.67;100772.44;5070822;27;46841;-71
2021/06/01 06:12:46;;;;;;;;;8.00;8.00;;;;;20.51;37.50;100766.00;5070841;27;46992;-78
2021/06/01 06:15:17;;;;;;;;;7.50;7.00;;;;;20.57;37.40;100769.16;5068256;27;47219;-73
2021/06/01 06:17:44;;;;;;;;;8.75;7.00;;;;;20.61;37.53;100772.56;5062627;27;45806;-71
2021/06/01 06:20:14;;;;;;;;;6.25;5.75;;;;;20.67;37.58;100768.59;5061494;27;45848;-70
2021/06/01 06:22:40;;;;;;;;;8.00;7.25;;;;;20.71;37.21;100767.44;5064304;27;45924;-70
2021/06/01 06:25:07;;;;;;;;;9.50;7.25;;;;;20.72;37.84;100764.66;5068700;27;45718;-71
2021/06/01 06:27:33;;;;;;;;;8.25;8.25;;;;;20.74;37.75;100772.66;5064185;28;45507;-69
2021/06/01 06:29:59;;;;;;;;;6.25;6.25;;;;;20.74;37.40;100767.25;5073057;28;45514;-72
2021/06/01 06:32:24;;;;;;;;;10.00;7.00;;;;;20.79;36.91;100768.69;5072784;27;47213;-68
2021/06/01 06:34:51;;;;;;;;;8.00;7.00;;;;;20.79;37.25;100763.28;5063322;27;45439;-70
2021/06/01 06:37:16;;;;;;;;;9.50;7.50;;;;;20.81;37.17;100764.06;5070419;27;45629;-69
2021/06/01 06:39:42;;;;;;;;;8.25;6.00;;;;;20.84;37.79;100765.72;5066150;28;45307;-70
2021/06/01 06:42:07;;;;;;;;;8.00;7.00;;;;;20.90;37.27;100761.75;5073918;27;46195;-74
2021/06/01 06:44:33;;;;;;;;;7.50;7.50;;;;;20.94;37.38;100757.88;5069915;27;45776;-69
2021/06/01 06:47:19;;;;;;;;;8.00;8.00;;;;;21.00;36.95;100762.91;5069321;27;45579;-71
2021/06/01 06:49:45;;;;;;;;;8.50;7.50;;;;;21.02;36.77;100756.44;5070739;28;45557;-70
2021/06/01 06:52:11;;;;;;;;;8.25;8.25;;;;;21.03;36.95;100760.00;5069408;28;45498;-69
2021/06/01 06:54:37;;;;;;;;;6.00;6.00;;;;;21.07;37.05;100757.00;5068325;27;47221;-69
2021/06/01 06:57:04;;;;;;;;;7.75;7.75;;;;;21.09;36.94;100760.50;5057285;28;45640;-67
2021/06/01 06:59:30;;;;;;;;;6.00;6.00;;;;;21.11;36.89;100761.25;5067980;27;45469;-71
2021/06/01 07:01:56;;;;;;;;;6.00;6.00;;;;;21.15;37.54;100756.50;5070606;27;45448;-70
2021/06/01 07:04:22;;;;;;;;;10.75;9.00;;;;;21.18;37.02;100753.59;5063357;27;47411;-68
2021/06/01 07:06:48;;;;;;;;;9.00;9.00;;;;;21.20;37.09;100757.06;5057807;27;45422;-69
2021/06/01 07:09:14;;;;;;;;;7.00;7.00;;;;;21.22;37.08;100755.16;5071456;27;45451;-68
2021/06/01 07:11:41;;;;;;;;;9.50;9.00;;;;;21.26;37.08;100751.31;5070079;28;45496;-69
2021/06/01 07:14:25;;;;;;;;;7.00;7.00;;;;;21.28;37.16;100748.50;5069255;27;45766;-69
2021/06/01 07:16:51;;;;;;;;;8.00;8.00;;;;;21.29;37.43;100743.00;5070873;27;45471;-68
2021/06/01 07:19:17;;;;;;;;;7.00;6.25;;;;;21.26;37.56;100751.31;5059339;28;45516;-70
2021/06/01 07:21:43;;;;;;;;;7.00;7.00;;;;;21.21;37.52;100741.72;5072665;27;45457;-68
2021/06/01 07:24:10;;;;;;;;;7.25;7.25;;;;;21.21;37.28;100744.44;5066246;27;46116;-70
2021/06/01 07:26:35;;;;;;;;;6.50;5.75;;;;;21.25;37.22;100743.28;5076172;27;45643;-73
2021/06/01 07:29:02;;;;;;;;;8.00;7.25;;;;;21.27;37.70;100735.97;5073517;27;45388;-75
2021/06/01 07:31:27;;;;;;;;;6.25;6.25;;;;;21.33;37.47;100732.88;5070784;27;45564;-73
2021/06/01 07:33:52;;;;;;;;;7.00;7.00;;;;;21.36;37.51;100728.16;5069816;28;45491;-68
2021/06/01 07:36:18;;;;;;;;;7.00;6.50;;;;;21.38;37.64;100731.63;5073065;27;45432;-68
2021/06/01 07:38:44;;;;;;;;;9.75;9.75;;;;;21.43;37.04;100728.59;5067652;28;45447;-67
2021/06/01 07:41:10;;;;;;;;;8.75;8.00;;;;;21.47;37.36;100730.16;5068042;28;45519;-70
2021/06/01 07:43:36;;;;;;;;;7.00;6.50;;;;;21.51;37.51;100718.16;5058235;28;45495;-68
2021/06/01 07:46:03;;;;;;;;;5.75;5.75;;;;;21.56;36.90;100718.69;5069970;27;46474;-67
2021/06/01 07:48:32;;;;;;;;;7.00;7.00;;;;;21.59;36.83;100723.88;5066906;28;45572;-69
2021/06/01 07:50:57;;;;;;;;;9.00;7.25;;;;;21.65;37.37;100720.78;5062024;27;45759;-70
2021/06/01 07:53:23;;;;;;;;;9.00;9.00;;;;;21.70;36.96;100723.16;5063930;27;46553;-67
2021/06/01 07:55:48;;;;;;;;;5.50;5.50;;;;;21.74;36.67;100722.88;5063991;27;45476;-70
2021/06/01 07:58:14;;;;;;;;;9.75;6.00;;;;;21.80;36.68;100728.81;5073322;27;45401;-69
2021/06/01 08:00:39;;;;;;;;;6.00;6.00;;;;;21.83;36.56;100723.19;5064654;27;45499;-71
2021/06/01 08:03:06;;;;;;;;;7.00;6.00;;;;;21.85;36.74;100724.84;5059601;27;45427;-71
2021/06/01 08:05:32;;;;;;;;;8.25;7.00;;;;;21.90;36.50;100719.13;5068331;27;45448;-70
2021/06/01 08:07:57;;;;;;;;;8.25;8.25;;;;;21.94;36.61;100707.97;5078444;27;45409;-68
2021/06/01 08:10:24;;;;;;;;;11.00;8.75;;;;;21.97;36.56;100713.16;5069374;27;45590;-69
2021/06/01 08:12:52;;;;;;;;;7.25;7.25;;;;;22.03;36.50;100703.78;5063305;27;45530;-68
2021/06/01 08:15:20;;;;;;;;;9.00;9.00;;;;;22.06;37.00;100700.03;5056959;27;45630;-70
2021/06/01 08:17:53;;;;;;;;;6.75;6.00;;;;;22.12;36.82;100695.06;5059924;27;46706;-69
2021/06/01 08:21:35;;;;;;;;;8.75;8.00;;;;;22.17;36.95;100692.03;5079820;27;45436;-69
2021/06/01 08:23:14;;;;;;;;;10.50;9.00;;;;;22.23;36.47;100686.19;5065356;27;45873;-70
2021/06/01 08:25:39;;;;;;;;;8.50;8.50;;;;;22.26;36.57;100686.84;5071629;27;46083;-69
2021/06/01 08:28:05;;;;;;;;;7.50;6.50;;;;;22.29;36.48;100688.47;5067215;27;46390;-74
2021/06/01 08:30:31;;;;;;;;;8.00;8.00;;;;;22.31;37.07;100687.38;5064518;27;45195;-72
2021/06/01 08:32:57;;;;;;;;;7.00;7.00;;;;;22.35;36.72;100677.22;5070401;27;46574;-71
2021/06/01 08:35:23;;;;;;;;;7.50;7.00;;;;;22.38;36.84;100678.84;5066471;27;45498;-70
2021/06/01 08:37:48;;;;;;;;;7.25;7.25;;;;;22.39;36.84;100683.28;5072024;27;45319;-70
2021/06/01 08:40:14;;;;;;;;;9.50;8.50;;;;;22.40;36.49;100677.75;5071163;27;45468;-69
2021/06/01 08:42:40;;;;;;;;;9.75;9.75;;;;;22.43;36.17;100679.38;5067781;27;46452;-70
2021/06/01 08:45:08;;;;;;;;;8.75;7.00;;;;;22.48;36.28;100678.06;5069985;27;45419;-71
2021/06/01 08:47:34;;;;;;;;;8.50;8.00;;;;;22.50;36.84;100677.97;5064336;27;45383;-71
2021/06/01 08:50:07;;;;;;;;;8.50;7.00;;;;;22.54;36.76;100683.03;5062345;27;45376;-69
2021/06/01 08:52:33;;;;;;;;;10.00;9.25;;;;;22.59;36.93;100678.16;5070319;28;47717;-70
2021/06/01 08:54:59;;;;;;;;;8.75;8.50;;;;;22.66;37.08;100678.59;5073750;27;46482;-70
2021/06/01 08:57:25;;;;;;;;;8.25;8.25;;;;;22.70;36.76;100663.84;5071672;27;45656;-70
2021/06/01 08:59:51;;;;;;;;;8.00;8.00;;;;;22.76;36.85;100676.94;5071512;27;45523;-70
2021/06/01 09:02:23;;;;;;;;;8.00;8.00;;;;;22.80;36.96;100670.31;5067942;27;45589;-68
2021/06/01 09:05:00;;;;;;;;;7.00;7.00;;;;;22.85;36.65;100678.13;5069916;27;46292;-71
2021/06/01 09:21:31;;;;;;;;;8.75;7.75;;;;;23.17;36.73;100663.06;5066272;27;45534;-70
2021/06/01 09:24:01;;;;;;;;;6.75;6.75;;;;;23.23;37.01;100671.72;5068153;27;45452;-70
2021/06/01 09:26:46;;;;;;;;;8.75;8.75;;;;;23.27;36.68;100657.84;5068266;28;45523;-70
2021/06/01 09:29:12;;;;;;;;;7.00;7.00;;;;;23.31;36.67;100658.47;5057825;27;45550;-68
2021/06/01 09:31:38;;;;;;;;;9.00;9.00;;;;;23.35;36.19;100647.28;5064875;27;45343;-69
2021/06/01 09:34:03;;;;;;;;;7.75;6.50;;;;;23.39;36.60;100643.38;5062941;27;45484;-68
2021/06/01 09:36:29;;;;;;;;;6.75;6.75;;;;;23.43;36.46;100654.81;5073123;27;45559;-67
2021/06/01 09:38:54;;;;;;;;;8.50;8.50;;;;;23.47;36.57;100649.03;5061245;27;45623;-68
2021/06/01 09:41:26;;;;;;;;;8.00;8.00;;;;;23.52;36.74;100637.88;5068542;27;45558;-70
2021/06/01 09:43:59;;;;;;;;;10.25;9.50;;;;;23.58;36.25;100633.84;5071435;28;48358;-69
2021/06/01 09:46:28;;;;;;;;;7.50;7.50;;;;;23.62;36.18;100632.63;5068263;28;45537;-69
2021/06/01 09:49:15;;;;;;;;;8.50;8.50;;;;;23.64;35.89;100628.84;5064703;28;45493;-69
2021/06/01 09:51:48;;;;;;;;;8.00;7.75;;;;;23.70;36.23;100636.47;5060120;28;46864;-70
2021/06/01 09:54:29;;;;;;;;;9.00;9.00;;;;;23.78;36.13;100635.88;5071661;28;47607;-72
2021/06/01 09:56:56;;;;;;;;;8.25;8.25;;;;;23.85;36.04;100636.25;5073432;28;45467;-68
2021/06/01 09:59:21;;;;;;;;;8.50;7.50;;;;;23.90;36.29;100636.78;5065708;27;45574;-69
2021/06/01 10:01:47;;;;;;;;;9.25;8.25;;;;;23.96;36.39;100633.56;5083679;27;45568;-70
2021/06/01 10:04:28;;;;;;;;;8.50;8.00;;;;;24.03;36.39;100624.84;5063059;28;48581;-70
2021/06/01 10:06:54;;;;;;;;;9.25;9.00;;;;;24.08;35.47;100633.47;5061433;28;46169;-69
2021/06/01 10:09:21;;;;;;;;;10.50;9.00;;;;;24.13;35.82;100633.09;5071479;28;45443;-69
2021/06/01 10:11:57;;;;;;;;;9.00;9.00;;;;;24.17;35.41;100631.88;5068903;28;45428;-71
2021/06/01 10:14:24;;;;;;;;;12.00;12.00;;;;;24.20;35.83;100626.19;5061143;27;46717;-70
2021/06/01 10:16:50;;;;;;;;;8.00;8.00;;;;;24.25;35.42;100632.09;5062500;28;46323;-70
2021/06/01 10:19:17;;;;;;;;;7.50;7.50;;;;;24.30;35.35;100627.22;5067005;27;45530;-69
2021/06/01 10:21:44;;;;;;;;;9.00;9.00;;;;;24.35;35.64;100630.44;5063400;28;45618;-69
2021/06/01 10:24:14;;;;;;;;;9.00;9.00;;;;;24.43;34.80;100618.97;5072076;27;45527;-68
2021/06/01 10:26:43;;;;;;;;;8.25;8.00;;;;;24.49;34.46;100614.88;5075127;27;45345;-68
2021/06/01 10:29:08;;;;;;;;;9.00;9.00;;;;;24.53;34.94;100609.09;5069668;27;45586;-68
2021/06/01 10:31:36;;;;;;;;;15.25;14.25;;;;;24.57;34.38;100610.56;5073241;28;45436;-67
2021/06/01 10:34:08;;;;;;;;;7.75;7.25;;;;;24.60;34.37;100614.88;5066272;27;45554;-69
2021/06/01 10:53:13;;;;;;;;;10.00;10.00;;;;;24.90;34.43;100589.75;5068826;27;45532;-69
2021/06/01 10:56:02;;;;;;;;;7.50;7.50;;;;;24.95;34.29;100591.09;5071872;28;46688;-72
2021/06/01 10:58:51;;;;;;;;;8.00;8.00;;;;;25.01;34.06;100576.16;5066937;27;45604;-69
2021/06/01 11:04:37;;;;;;;;;7.75;6.25;;;;;25.11;33.76;100581.69;5062509;28;45532;-72
2021/06/01 11:09:33;;;;;;;;;9.00;9.00;;;;;25.21;33.79;100583.50;5060386;28;45466;-68
2021/06/01 11:11:59;;;;;;;;;9.25;8.00;;;;;25.27;34.15;100587.53;5070663;28;45419;-70
2021/06/01 11:14:32;;;;;;;;;9.25;9.25;;;;;25.33;33.27;100583.44;5065881;28;45462;-70
2021/06/01 11:16:59;;;;;;;;;7.75;5.75;;;;;25.37;33.29;100584.91;5067623;28;47691;-67
2021/06/01 11:19:30;;;;;;;;;7.75;7.75;;;;;25.40;32.74;100577.34;5058162;27;46482;-68
2021/06/01 11:22:02;;;;;;;;;6.75;6.25;;;;;25.47;32.88;100575.84;5062415;28;45701;-70
2021/06/01 11:33:04;;;;;;;;;9.25;8.25;;;;;25.58;33.08;100563.19;5063325;28;45484;-69
2021/06/01 11:35:36;;;;;;;;;9.00;8.00;;;;;25.59;33.00;100560.31;5068263;28;45821;-69
2021/06/01 11:43:10;;;;;;;;;8.50;7.50;;;;;25.68;31.81;100558.69;5070062;28;45411;-69
2021/06/01 11:46:41;;;;;;;;;11.00;10.00;;;;;25.71;31.81;100551.13;5065873;27;45334;-70
2021/06/01 11:51:17;;;;;;;;;7.00;7.00;;;;;25.77;31.49;100550.59;5065396;27;45628;-70
2021/06/01 11:53:57;;;;;;;;;7.00;7.00;;;;;25.78;31.45;100546.00;5070618;27;45529;-70
2021/06/01 12:04:57;;;;;;;;;7.50;7.50;;;;;25.84;31.43;100541.91;5073997;27;45463;-69
2021/06/01 12:20:46;;;;;;;;;7.00;7.00;;;;;26.00;30.05;100529.53;5067509;27;45643;-70
2021/06/01 12:23:36;;;;;;;;;6.00;6.00;;;;;26.03;31.07;100525.66;5066092;27;45369;-70
2021/06/01 12:32:22;;;;;;;;;5.00;5.00;;;;;26.14;30.18;100524.69;5054887;28;45454;-70
2021/06/01 12:35:06;;;;;;;;;6.25;6.25;;;;;26.15;30.42;100524.56;5070680;27;45654;-71
2021/06/01 12:46:17;;;;;;;;;7.00;7.00;;;;;26.26;30.51;100521.75;5066343;27;45417;-68
2021/06/01 13:13:55;;;;;;;;;7.75;7.00;;;;;26.67;29.90;100517.13;4909581;28;47902;-62
2021/06/01 13:20:55;;;;;;;;;5.25;5.25;;;;;26.87;30.25;100507.13;5054777;28;60545;-46
2021/06/01 13:24:04;;;;;;;;;6.25;6.25;;;;;24.32;29.44;100504.84;5086538;27;72766;-50
2021/06/01 13:39:13;;;;;;;;;6.75;6.25;;;;;26.67;30.99;100500.78;5023753;27;46614;-49
2021/06/01 13:51:42;;;;;;;;;5.75;5.75;;;;;26.83;31.13;100483.91;5029268;28;83975;-52
2021/06/01 13:56:57;;;;;;;;;7.50;6.00;;;;;26.87;31.08;100479.88;5002266;28;45307;-53
2021/06/01 14:19:23;;;;;;;;;6.00;6.00;;;;;26.98;31.08;100466.13;5025358;28;45535;-53
2021/06/01 14:29:55;;;;;;;;;;;;;;;27.16;31.28;100469.84;5049651;28;67434;-53
2021/06/01 15:22:29;;;;;;;;;6.00;5.00;;;;;27.79;31.43;100440.13;5056581;28;45480;-54
2021/06/01 15:30:36;;;;;;;;;8.75;6.75;;;;;28.47;30.96;100431.59;5053915;28;45420;-56
2021/06/01 15:49:30;;;;;;;;;4.25;4.25;;;;;29.24;30.07;100419.94;5035277;28;47207;-56